Hinkle, KY (40953)

7:58 PM EDT on July 23, 2016 (GMT -0400)
Mackey Bend | | Change Station

Elev 1010 ft 36.81 °N, 83.96 °W | Updated 1 minute ago

Light Rain
Light Rain
85.8 °F
Feels Like 100 °F
N
0.0
Wind Variable Wind from SSE

Today
High -- | Low -- °F
--% Chance of Precip.
Yesterday
High -- | Low -- °F
Precip. -- in
Pressure 30.01 in
Visibility 7.0 miles
Clouds Scattered Clouds 4300 ft
Mostly Cloudy 6000 ft
Overcast 11000 ft
Heat Index 100 °F
Dew Point 80 °F
Humidity 82%
Rainfall 0.00 in
Snow Depth Not available.
6:33 AM 8:48 PM
Waning Gibbous, 81% visible
METAR K1A6 232355Z AUTO 00000KT 7SM -RA SCT043 BKN060 OVC110 27/21 A3001 RMK AO2 P0001 60001 T02700211 10334 20270
Pressure 30.01 in
Visibility 7.0 miles
Clouds Scattered Clouds 4300 ft
Mostly Cloudy 6000 ft
Overcast 11000 ft
Heat Index 100 °F
Dew Point 80 °F
Humidity 82%
Rainfall 0.00 in
Snow Depth Not available.
6:33 AM 8:48 PM
Waning Gibbous, 81% visible
METAR K1A6 232355Z AUTO 00000KT 7SM -RA SCT043 BKN060 OVC110 27/21 A3001 RMK AO2 P0001 60001 T02700211 10334 20270

10-Day Weather Forecast

Almanac

Astronomy

Jul. 23, 2016 Rise Set
Actual Time
Civil Twilight
Nautical Twilight
Astronomical Twilight
Moon
Length of Visible Light
Length of Day
Tomorrow will be .
, % of the Moon is Illuminated

Today's Extremes

State Highs State Lows

Community

WunderPhotos

Upload Photos

1,926,975 photos uploaded!

WunderBlog® & News

Nearby

Air Quality

  Air Quality AQ Index Pollutant
Not available.

Snow Depth

Station Depth Elevation

Earthquake Activity

City Distance Mag. Time & Date
Minimum magnitude displayed is 2.5.

Coastal Water Temperatures

Place Temperature

Stations

Nearby Weather Stations

Station Location Temp. Windchill Dew Point Humidity Wind Precip. Elev Updated Type
                   

Watches & Warnings

There are currently no watches in effect.